sensor_id;sensor_type;location;lat;lon;timestamp;temperature;humidity
76785;SHT30;66893;44.316;0.092;2023-04-16T00:00:13;19.82;38.58
76785;SHT30;66893;44.316;0.092;2023-04-16T00:02:38;19.75;38.61
76785;SHT30;66893;44.316;0.092;2023-04-16T00:05:04;19.77;38.66
76785;SHT30;66893;44.316;0.092;2023-04-16T00:07:30;19.69;38.73
76785;SHT30;66893;44.316;0.092;2023-04-16T00:09:55;19.68;38.75
76785;SHT30;66893;44.316;0.092;2023-04-16T00:12:22;19.62;38.81
76785;SHT30;66893;44.316;0.092;2023-04-16T00:14:47;19.60;38.83
76785;SHT30;66893;44.316;0.092;2023-04-16T00:17:13;19.58;38.95
76785;SHT30;66893;44.316;0.092;2023-04-16T00:19:38;19.54;38.98
76785;SHT30;66893;44.316;0.092;2023-04-16T00:22:04;19.51;38.98
76785;SHT30;66893;44.316;0.092;2023-04-16T00:24:29;19.47;39.06
76785;SHT30;66893;44.316;0.092;2023-04-16T00:26:55;19.41;39.03
76785;SHT30;66893;44.316;0.092;2023-04-16T00:29:21;19.40;39.19
76785;SHT30;66893;44.316;0.092;2023-04-16T00:31:46;19.35;39.19
76785;SHT30;66893;44.316;0.092;2023-04-16T00:34:12;19.34;39.19
76785;SHT30;66893;44.316;0.092;2023-04-16T00:36:37;19.28;39.20
76785;SHT30;66893;44.316;0.092;2023-04-16T00:39:03;19.24;39.21
76785;SHT30;66893;44.316;0.092;2023-04-16T00:41:28;19.26;39.29
76785;SHT30;66893;44.316;0.092;2023-04-16T00:43:54;19.20;39.30
76785;SHT30;66893;44.316;0.092;2023-04-16T00:46:21;19.19;39.36
76785;SHT30;66893;44.316;0.092;2023-04-16T00:48:47;19.16;39.38
76785;SHT30;66893;44.316;0.092;2023-04-16T00:51:13;19.10;39.35
76785;SHT30;66893;44.316;0.092;2023-04-16T00:53:39;19.12;39.38
76785;SHT30;66893;44.316;0.092;2023-04-16T00:56:06;19.06;39.41
76785;SHT30;66893;44.316;0.092;2023-04-16T00:58:33;19.05;39.41
76785;SHT30;66893;44.316;0.092;2023-04-16T01:00:59;18.99;39.46
76785;SHT30;66893;44.316;0.092;2023-04-16T01:03:37;18.98;39.42
76785;SHT30;66893;44.316;0.092;2023-04-16T01:06:04;18.92;39.47
76785;SHT30;66893;44.316;0.092;2023-04-16T01:08:30;18.91;39.56
76785;SHT30;66893;44.316;0.092;2023-04-16T01:10:55;18.86;39.56
76785;SHT30;66893;44.316;0.092;2023-04-16T01:13:21;18.84;39.58
76785;SHT30;66893;44.316;0.092;2023-04-16T01:15:46;18.81;39.61
76785;SHT30;66893;44.316;0.092;2023-04-16T01:18:16;18.78;39.60
76785;SHT30;66893;44.316;0.092;2023-04-16T01:20:42;18.69;39.60
76785;SHT30;66893;44.316;0.092;2023-04-16T01:23:08;18.69;39.66
76785;SHT30;66893;44.316;0.092;2023-04-16T01:25:33;18.67;39.65
76785;SHT30;66893;44.316;0.092;2023-04-16T01:27:58;18.64;39.69
76785;SHT30;66893;44.316;0.092;2023-04-16T01:30:24;18.62;39.63
76785;SHT30;66893;44.316;0.092;2023-04-16T01:32:50;18.59;39.67
76785;SHT30;66893;44.316;0.092;2023-04-16T01:35:15;18.55;39.70
76785;SHT30;66893;44.316;0.092;2023-04-16T01:37:42;18.55;39.63
76785;SHT30;66893;44.316;0.092;2023-04-16T01:40:08;18.52;39.68
76785;SHT30;66893;44.316;0.092;2023-04-16T01:42:34;18.48;39.65
76785;SHT30;66893;44.316;0.092;2023-04-16T01:44:59;18.44;39.73
76785;SHT30;66893;44.316;0.092;2023-04-16T01:47:25;18.41;39.75
76785;SHT30;66893;44.316;0.092;2023-04-16T01:49:50;18.38;39.77
76785;SHT30;66893;44.316;0.092;2023-04-16T01:52:16;18.37;39.76
76785;SHT30;66893;44.316;0.092;2023-04-16T01:54:42;18.36;39.78
76785;SHT30;66893;44.316;0.092;2023-04-16T01:57:07;18.36;39.82
76785;SHT30;66893;44.316;0.092;2023-04-16T01:59:33;18.29;39.86
76785;SHT30;66893;44.316;0.092;2023-04-16T02:02:11;18.26;39.84
76785;SHT30;66893;44.316;0.092;2023-04-16T02:04:41;18.23;39.83
76785;SHT30;66893;44.316;0.092;2023-04-16T02:07:07;18.23;39.89
76785;SHT30;66893;44.316;0.092;2023-04-16T02:09:34;18.16;39.90
76785;SHT30;66893;44.316;0.092;2023-04-16T02:11:59;18.13;39.87
76785;SHT30;66893;44.316;0.092;2023-04-16T02:14:26;18.14;39.95
76785;SHT30;66893;44.316;0.092;2023-04-16T02:16:52;18.12;39.94
76785;SHT30;66893;44.316;0.092;2023-04-16T02:19:17;18.07;40.02
76785;SHT30;66893;44.316;0.092;2023-04-16T02:21:43;18.07;40.01
76785;SHT30;66893;44.316;0.092;2023-04-16T02:24:08;18.04;40.01
76785;SHT30;66893;44.316;0.092;2023-04-16T02:26:33;18.02;39.97
76785;SHT30;66893;44.316;0.092;2023-04-16T02:28:59;17.99;39.97
76785;SHT30;66893;44.316;0.092;2023-04-16T02:31:25;17.95;40.01
76785;SHT30;66893;44.316;0.092;2023-04-16T02:33:52;17.93;40.07
76785;SHT30;66893;44.316;0.092;2023-04-16T02:36:18;17.92;40.09
76785;SHT30;66893;44.316;0.092;2023-04-16T02:38:44;17.90;40.09
76785;SHT30;66893;44.316;0.092;2023-04-16T02:41:09;17.89;40.09
76785;SHT30;66893;44.316;0.092;2023-04-16T02:43:34;17.89;40.10
76785;SHT30;66893;44.316;0.092;2023-04-16T02:46:00;17.82;40.15
76785;SHT30;66893;44.316;0.092;2023-04-16T02:48:25;17.78;40.19
76785;SHT30;66893;44.316;0.092;2023-04-16T02:50:51;17.78;40.19
76785;SHT30;66893;44.316;0.092;2023-04-16T02:53:16;17.74;40.19
76785;SHT30;66893;44.316;0.092;2023-04-16T02:55:54;17.72;40.23
76785;SHT30;66893;44.316;0.092;2023-04-16T02:58:21;17.71;40.22
76785;SHT30;66893;44.316;0.092;2023-04-16T03:00:46;17.67;40.14
76785;SHT30;66893;44.316;0.092;2023-04-16T03:03:12;17.67;40.18
76785;SHT30;66893;44.316;0.092;2023-04-16T03:05:38;17.64;40.28
76785;SHT30;66893;44.316;0.092;2023-04-16T03:08:04;17.64;40.32
76785;SHT30;66893;44.316;0.092;2023-04-16T03:10:30;17.59;40.30
76785;SHT30;66893;44.316;0.092;2023-04-16T03:12:56;17.58;40.24
76785;SHT30;66893;44.316;0.092;2023-04-16T03:15:22;17.52;40.28
76785;SHT30;66893;44.316;0.092;2023-04-16T03:17:47;17.52;40.28
76785;SHT30;66893;44.316;0.092;2023-04-16T03:20:12;17.51;40.29
76785;SHT30;66893;44.316;0.092;2023-04-16T03:22:39;17.50;40.36
76785;SHT30;66893;44.316;0.092;2023-04-16T03:25:06;17.45;40.37
76785;SHT30;66893;44.316;0.092;2023-04-16T03:27:32;17.44;40.38
76785;SHT30;66893;44.316;0.092;2023-04-16T03:29:57;17.41;40.42
76785;SHT30;66893;44.316;0.092;2023-04-16T03:32:23;17.35;40.38
76785;SHT30;66893;44.316;0.092;2023-04-16T03:34:48;17.34;40.46
76785;SHT30;66893;44.316;0.092;2023-04-16T03:37:14;17.30;40.44
76785;SHT30;66893;44.316;0.092;2023-04-16T03:39:39;17.31;40.45
76785;SHT30;66893;44.316;0.092;2023-04-16T03:42:05;17.30;40.48
76785;SHT30;66893;44.316;0.092;2023-04-16T03:44:30;17.28;40.44
76785;SHT30;66893;44.316;0.092;2023-04-16T03:46:56;17.28;40.41
76785;SHT30;66893;44.316;0.092;2023-04-16T03:49:21;17.28;40.41
76785;SHT30;66893;44.316;0.092;2023-04-16T03:51:46;17.26;40.40
76785;SHT30;66893;44.316;0.092;2023-04-16T03:54:12;17.26;40.44
76785;SHT30;66893;44.316;0.092;2023-04-16T03:56:39;17.24;40.41
76785;SHT30;66893;44.316;0.092;2023-04-16T03:59:05;17.21;40.45
76785;SHT30;66893;44.316;0.092;2023-04-16T04:01:30;17.21;40.42
76785;SHT30;66893;44.316;0.092;2023-04-16T04:03:56;17.17;40.43
76785;SHT30;66893;44.316;0.092;2023-04-16T04:06:21;17.16;40.37
76785;SHT30;66893;44.316;0.092;2023-04-16T04:08:46;17.16;40.37
76785;SHT30;66893;44.316;0.092;2023-04-16T04:11:12;17.16;40.39
76785;SHT30;66893;44.316;0.092;2023-04-16T04:13:37;17.14;40.35
76785;SHT30;66893;44.316;0.092;2023-04-16T04:16:03;17.10;40.33
76785;SHT30;66893;44.316;0.092;2023-04-16T04:18:29;17.07;40.35
76785;SHT30;66893;44.316;0.092;2023-04-16T04:20:55;17.06;40.35
76785;SHT30;66893;44.316;0.092;2023-04-16T04:23:20;17.03;40.33
76785;SHT30;66893;44.316;0.092;2023-04-16T04:25:45;17.03;40.26
76785;SHT30;66893;44.316;0.092;2023-04-16T04:28:11;17.02;40.33
76785;SHT30;66893;44.316;0.092;2023-04-16T04:30:36;17.00;40.34
76785;SHT30;66893;44.316;0.092;2023-04-16T04:33:02;16.95;40.33
76785;SHT30;66893;44.316;0.092;2023-04-16T04:35:27;16.93;40.31
76785;SHT30;66893;44.316;0.092;2023-04-16T04:37:53;16.93;40.32
76785;SHT30;66893;44.316;0.092;2023-04-16T04:40:18;16.89;40.35
76785;SHT30;66893;44.316;0.092;2023-04-16T04:42:44;16.86;40.34
76785;SHT30;66893;44.316;0.092;2023-04-16T04:45:10;16.86;40.32
76785;SHT30;66893;44.316;0.092;2023-04-16T04:47:35;16.82;40.36
76785;SHT30;66893;44.316;0.092;2023-04-16T04:50:01;16.82;40.28
76785;SHT30;66893;44.316;0.092;2023-04-16T04:52:26;16.77;40.33
76785;SHT30;66893;44.316;0.092;2023-04-16T04:54:52;16.76;40.30
76785;SHT30;66893;44.316;0.092;2023-04-16T04:57:17;16.75;40.28
76785;SHT30;66893;44.316;0.092;2023-04-16T04:59:42;16.75;40.31
76785;SHT30;66893;44.316;0.092;2023-04-16T05:02:08;16.71;40.30
76785;SHT30;66893;44.316;0.092;2023-04-16T05:04:33;16.71;40.29
76785;SHT30;66893;44.316;0.092;2023-04-16T05:06:59;16.68;40.29
76785;SHT30;66893;44.316;0.092;2023-04-16T05:09:25;16.66;40.34
76785;SHT30;66893;44.316;0.092;2023-04-16T05:11:51;16.66;40.33
76785;SHT30;66893;44.316;0.092;2023-04-16T05:14:17;16.64;40.33
76785;SHT30;66893;44.316;0.092;2023-04-16T05:16:42;16.64;40.34
76785;SHT30;66893;44.316;0.092;2023-04-16T05:19:07;16.59;40.34
76785;SHT30;66893;44.316;0.092;2023-04-16T05:21:33;16.59;40.36
76785;SHT30;66893;44.316;0.092;2023-04-16T05:23:58;16.59;40.36
76785;SHT30;66893;44.316;0.092;2023-04-16T05:26:24;16.57;40.33
76785;SHT30;66893;44.316;0.092;2023-04-16T05:28:49;16.54;40.36
76785;SHT30;66893;44.316;0.092;2023-04-16T05:31:15;16.54;40.39
76785;SHT30;66893;44.316;0.092;2023-04-16T05:33:40;16.52;40.43
76785;SHT30;66893;44.316;0.092;2023-04-16T05:36:06;16.51;40.41
76785;SHT30;66893;44.316;0.092;2023-04-16T05:38:31;16.52;40.46
76785;SHT30;66893;44.316;0.092;2023-04-16T05:40:57;16.49;40.47
76785;SHT30;66893;44.316;0.092;2023-04-16T05:43:23;16.49;40.48
76785;SHT30;66893;44.316;0.092;2023-04-16T05:45:49;16.49;40.51
76785;SHT30;66893;44.316;0.092;2023-04-16T05:48:14;16.47;40.51
76785;SHT30;66893;44.316;0.092;2023-04-16T05:50:40;16.48;40.54
76785;SHT30;66893;44.316;0.092;2023-04-16T05:53:07;16.47;40.50
76785;SHT30;66893;44.316;0.092;2023-04-16T05:55:33;16.51;40.62
76785;SHT30;66893;44.316;0.092;2023-04-16T05:58:01;16.49;40.59
76785;SHT30;66893;44.316;0.092;2023-04-16T06:00:29;16.47;40.63
76785;SHT30;66893;44.316;0.092;2023-04-16T06:02:54;16.45;40.63
76785;SHT30;66893;44.316;0.092;2023-04-16T06:05:20;16.45;40.65
76785;SHT30;66893;44.316;0.092;2023-04-16T06:07:46;16.45;40.66
76785;SHT30;66893;44.316;0.092;2023-04-16T06:10:11;16.45;40.69
76785;SHT30;66893;44.316;0.092;2023-04-16T06:12:37;16.48;40.67
76785;SHT30;66893;44.316;0.092;2023-04-16T06:15:03;16.47;40.72
76785;SHT30;66893;44.316;0.092;2023-04-16T06:17:28;16.48;40.73
76785;SHT30;66893;44.316;0.092;2023-04-16T06:19:54;16.48;40.77
76785;SHT30;66893;44.316;0.092;2023-04-16T06:22:19;16.48;40.83
76785;SHT30;66893;44.316;0.092;2023-04-16T06:24:45;16.47;40.86
76785;SHT30;66893;44.316;0.092;2023-04-16T06:27:10;16.47;40.88
76785;SHT30;66893;44.316;0.092;2023-04-16T06:29:36;16.48;40.97
76785;SHT30;66893;44.316;0.092;2023-04-16T06:32:01;16.49;41.02
76785;SHT30;66893;44.316;0.092;2023-04-16T06:34:28;16.49;41.03
76785;SHT30;66893;44.316;0.092;2023-04-16T06:36:53;16.52;41.08
76785;SHT30;66893;44.316;0.092;2023-04-16T06:39:19;16.54;41.10
76785;SHT30;66893;44.316;0.092;2023-04-16T06:41:47;16.55;41.13
76785;SHT30;66893;44.316;0.092;2023-04-16T06:44:12;16.57;41.19
76785;SHT30;66893;44.316;0.092;2023-04-16T06:46:38;16.57;41.16
76785;SHT30;66893;44.316;0.092;2023-04-16T06:49:03;16.57;41.23
76785;SHT30;66893;44.316;0.092;2023-04-16T06:51:28;16.57;41.26
76785;SHT30;66893;44.316;0.092;2023-04-16T06:53:54;16.57;41.31
76785;SHT30;66893;44.316;0.092;2023-04-16T06:56:20;16.58;41.27
76785;SHT30;66893;44.316;0.092;2023-04-16T06:58:45;16.57;41.41
76785;SHT30;66893;44.316;0.092;2023-04-16T07:01:11;16.58;41.44
76785;SHT30;66893;44.316;0.092;2023-04-16T07:03:36;16.58;41.48
76785;SHT30;66893;44.316;0.092;2023-04-16T07:06:02;16.57;41.54
76785;SHT30;66893;44.316;0.092;2023-04-16T07:08:27;16.41;41.95
76785;SHT30;66893;44.316;0.092;2023-04-16T07:10:53;16.31;42.24
76785;SHT30;66893;44.316;0.092;2023-04-16T07:13:19;16.32;42.39
76785;SHT30;66893;44.316;0.092;2023-04-16T07:15:45;16.34;42.44
76785;SHT30;66893;44.316;0.092;2023-04-16T07:18:10;16.32;42.56
76785;SHT30;66893;44.316;0.092;2023-04-16T07:20:36;16.35;42.59
76785;SHT30;66893;44.316;0.092;2023-04-16T07:23:01;16.35;42.77
76785;SHT30;66893;44.316;0.092;2023-04-16T07:25:26;16.40;42.94
76785;SHT30;66893;44.316;0.092;2023-04-16T07:27:52;16.40;42.85
76785;SHT30;66893;44.316;0.092;2023-04-16T07:30:18;16.44;42.91
76785;SHT30;66893;44.316;0.092;2023-04-16T07:32:43;16.45;42.88
76785;SHT30;66893;44.316;0.092;2023-04-16T07:35:09;16.44;43.04
76785;SHT30;66893;44.316;0.092;2023-04-16T07:37:34;16.47;43.10
76785;SHT30;66893;44.316;0.092;2023-04-16T07:40:00;16.47;43.13
76785;SHT30;66893;44.316;0.092;2023-04-16T07:42:26;16.47;43.18
76785;SHT30;66893;44.316;0.092;2023-04-16T07:44:52;16.48;43.17
76785;SHT30;66893;44.316;0.092;2023-04-16T07:47:17;16.49;43.31
76785;SHT30;66893;44.316;0.092;2023-04-16T07:49:43;16.51;43.35
76785;SHT30;66893;44.316;0.092;2023-04-16T07:52:08;16.54;43.33
76785;SHT30;66893;44.316;0.092;2023-04-16T07:54:34;16.52;43.42
76785;SHT30;66893;44.316;0.092;2023-04-16T07:57:00;16.57;43.45
76785;SHT30;66893;44.316;0.092;2023-04-16T07:59:32;16.58;43.55
76785;SHT30;66893;44.316;0.092;2023-04-16T08:02:00;16.58;43.56
76785;SHT30;66893;44.316;0.092;2023-04-16T08:04:26;16.61;43.63
76785;SHT30;66893;44.316;0.092;2023-04-16T08:06:52;16.65;43.66
76785;SHT30;66893;44.316;0.092;2023-04-16T08:09:19;16.68;43.79
76785;SHT30;66893;44.316;0.092;2023-04-16T08:11:45;16.66;43.86
76785;SHT30;66893;44.316;0.092;2023-04-16T08:14:13;16.73;43.90
76785;SHT30;66893;44.316;0.092;2023-04-16T08:16:38;16.73;43.96
76785;SHT30;66893;44.316;0.092;2023-04-16T08:19:04;16.76;43.98
76785;SHT30;66893;44.316;0.092;2023-04-16T08:21:30;16.77;44.02
76785;SHT30;66893;44.316;0.092;2023-04-16T08:23:56;16.80;44.12
76785;SHT30;66893;44.316;0.092;2023-04-16T08:26:21;16.83;44.14
76785;SHT30;66893;44.316;0.092;2023-04-16T08:28:47;16.85;44.31
76785;SHT30;66893;44.316;0.092;2023-04-16T08:31:12;16.92;44.36
76785;SHT30;66893;44.316;0.092;2023-04-16T08:33:39;16.90;44.34
76785;SHT30;66893;44.316;0.092;2023-04-16T08:36:05;16.96;44.43
76785;SHT30;66893;44.316;0.092;2023-04-16T08:38:30;16.99;44.47
76785;SHT30;66893;44.316;0.092;2023-04-16T08:40:57;17.02;44.50
76785;SHT30;66893;44.316;0.092;2023-04-16T08:43:27;17.09;44.63
76785;SHT30;66893;44.316;0.092;2023-04-16T08:45:56;17.09;44.64
76785;SHT30;66893;44.316;0.092;2023-04-16T08:48:22;17.17;44.66
76785;SHT30;66893;44.316;0.092;2023-04-16T08:50:51;17.17;44.75
76785;SHT30;66893;44.316;0.092;2023-04-16T08:53:17;17.19;44.75
76785;SHT30;66893;44.316;0.092;2023-04-16T08:55:47;17.23;44.91
76785;SHT30;66893;44.316;0.092;2023-04-16T08:58:17;17.26;44.88
76785;SHT30;66893;44.316;0.092;2023-04-16T09:00:43;17.27;44.98
76785;SHT30;66893;44.316;0.092;2023-04-16T09:03:11;17.32;45.06
76785;SHT30;66893;44.316;0.092;2023-04-16T09:05:37;17.32;45.08
76785;SHT30;66893;44.316;0.092;2023-04-16T09:08:04;17.34;44.88
76785;SHT30;66893;44.316;0.092;2023-04-16T09:10:30;17.28;45.06
76785;SHT30;66893;44.316;0.092;2023-04-16T09:12:56;17.26;45.49
76785;SHT30;66893;44.316;0.092;2023-04-16T09:15:22;17.16;45.59
76785;SHT30;66893;44.316;0.092;2023-04-16T09:17:47;17.12;45.70
76785;SHT30;66893;44.316;0.092;2023-04-16T09:20:13;17.09;45.75
76785;SHT30;66893;44.316;0.092;2023-04-16T09:22:39;17.07;45.96
76785;SHT30;66893;44.316;0.092;2023-04-16T09:25:06;17.03;45.97
76785;SHT30;66893;44.316;0.092;2023-04-16T09:27:31;17.03;46.03
76785;SHT30;66893;44.316;0.092;2023-04-16T09:29:57;16.99;46.16
76785;SHT30;66893;44.316;0.092;2023-04-16T09:32:27;17.02;46.21
76785;SHT30;66893;44.316;0.092;2023-04-16T09:34:55;17.03;46.15
76785;SHT30;66893;44.316;0.092;2023-04-16T09:37:22;17.04;46.46
76785;SHT30;66893;44.316;0.092;2023-04-16T09:39:56;17.03;46.19
76785;SHT30;66893;44.316;0.092;2023-04-16T09:42:30;17.03;46.24
76785;SHT30;66893;44.316;0.092;2023-04-16T09:44:57;17.02;46.47
76785;SHT30;66893;44.316;0.092;2023-04-16T09:47:24;17.04;46.56
76785;SHT30;66893;44.316;0.092;2023-04-16T09:49:50;17.06;46.34
76785;SHT30;66893;44.316;0.092;2023-04-16T09:52:21;17.12;46.67
76785;SHT30;66893;44.316;0.092;2023-04-16T09:54:51;17.19;46.65
76785;SHT30;66893;44.316;0.092;2023-04-16T09:57:23;17.26;46.80
76785;SHT30;66893;44.316;0.092;2023-04-16T10:00:04;17.37;46.79
76785;SHT30;66893;44.316;0.092;2023-04-16T10:02:31;17.45;46.80
76785;SHT30;66893;44.316;0.092;2023-04-16T10:05:00;17.52;46.74
76785;SHT30;66893;44.316;0.092;2023-04-16T10:07:33;17.62;46.71
76785;SHT30;66893;44.316;0.092;2023-04-16T10:09:59;17.71;46.63
76785;SHT30;66893;44.316;0.092;2023-04-16T10:12:24;17.76;46.63
76785;SHT30;66893;44.316;0.092;2023-04-16T10:14:51;17.85;46.50
76785;SHT30;66893;44.316;0.092;2023-04-16T10:17:17;17.95;46.45
76785;SHT30;66893;44.316;0.092;2023-04-16T10:19:44;18.04;46.33
76785;SHT30;66893;44.316;0.092;2023-04-16T10:22:10;18.12;46.24
76785;SHT30;66893;44.316;0.092;2023-04-16T10:24:35;18.20;46.13
76785;SHT30;66893;44.316;0.092;2023-04-16T10:27:01;18.30;46.07
76785;SHT30;66893;44.316;0.092;2023-04-16T10:29:28;18.34;45.97
76785;SHT30;66893;44.316;0.092;2023-04-16T10:31:55;18.44;45.96
76785;SHT30;66893;44.316;0.092;2023-04-16T10:34:22;18.48;45.97
76785;SHT30;66893;44.316;0.092;2023-04-16T10:36:50;18.58;45.85
76785;SHT30;66893;44.316;0.092;2023-04-16T10:39:24;18.65;45.73
76785;SHT30;66893;44.316;0.092;2023-04-16T10:42:09;18.78;45.66
76785;SHT30;66893;44.316;0.092;2023-04-16T10:44:35;18.86;45.67
76785;SHT30;66893;44.316;0.092;2023-04-16T10:47:01;18.92;45.56
76785;SHT30;66893;44.316;0.092;2023-04-16T10:49:26;19.02;45.49
76785;SHT30;66893;44.316;0.092;2023-04-16T10:52:08;19.10;45.39
76785;SHT30;66893;44.316;0.092;2023-04-16T10:54:35;19.20;45.29
76785;SHT30;66893;44.316;0.092;2023-04-16T10:57:15;19.23;45.53
76785;SHT30;66893;44.316;0.092;2023-04-16T10:59:43;19.33;45.34
76785;SHT30;66893;44.316;0.092;2023-04-16T11:02:14;19.40;45.57
76785;SHT30;66893;44.316;0.092;2023-04-16T11:04:44;19.50;45.56
76785;SHT30;66893;44.316;0.092;2023-04-16T11:09:58;19.69;45.42
76785;SHT30;66893;44.316;0.092;2023-04-16T11:14:58;19.86;44.95
76785;SHT30;66893;44.316;0.092;2023-04-16T11:17:28;19.96;44.60
76785;SHT30;66893;44.316;0.092;2023-04-16T11:19:54;20.05;44.95
76785;SHT30;66893;44.316;0.092;2023-04-16T11:22:20;20.15;44.78
76785;SHT30;66893;44.316;0.092;2023-04-16T11:24:46;20.24;44.78
76785;SHT30;66893;44.316;0.092;2023-04-16T11:27:13;20.37;44.72
76785;SHT30;66893;44.316;0.092;2023-04-16T11:29:39;20.45;44.77
76785;SHT30;66893;44.316;0.092;2023-04-16T11:32:05;20.55;44.66
76785;SHT30;66893;44.316;0.092;2023-04-16T11:34:30;20.67;44.61
76785;SHT30;66893;44.316;0.092;2023-04-16T11:36:56;20.75;44.59
76785;SHT30;66893;44.316;0.092;2023-04-16T11:39:21;20.88;44.61
76785;SHT30;66893;44.316;0.092;2023-04-16T11:41:49;20.99;44.54
76785;SHT30;66893;44.316;0.092;2023-04-16T11:44:21;21.09;44.44
76785;SHT30;66893;44.316;0.092;2023-04-16T11:46:47;21.19;44.43
76785;SHT30;66893;44.316;0.092;2023-04-16T11:49:13;21.34;44.15
76785;SHT30;66893;44.316;0.092;2023-04-16T11:51:45;21.46;44.23
76785;SHT30;66893;44.316;0.092;2023-04-16T11:54:20;21.55;44.21
76785;SHT30;66893;44.316;0.092;2023-04-16T11:56:48;21.67;44.19
76785;SHT30;66893;44.316;0.092;2023-04-16T11:59:19;21.80;43.81
76785;SHT30;66893;44.316;0.092;2023-04-16T12:01:54;21.95;44.00
76785;SHT30;66893;44.316;0.092;2023-04-16T12:04:22;22.06;43.96
76785;SHT30;66893;44.316;0.092;2023-04-16T12:07:12;22.20;44.00
76785;SHT30;66893;44.316;0.092;2023-04-16T12:09:42;22.35;43.79
76785;SHT30;66893;44.316;0.092;2023-04-16T12:12:27;22.49;43.80
76785;SHT30;66893;44.316;0.092;2023-04-16T12:14:55;22.60;43.54
76785;SHT30;66893;44.316;0.092;2023-04-16T12:17:22;22.74;43.19
76785;SHT30;66893;44.316;0.092;2023-04-16T12:20:01;22.88;43.36
76785;SHT30;66893;44.316;0.092;2023-04-16T12:22:34;22.99;42.47
76785;SHT30;66893;44.316;0.092;2023-04-16T12:25:02;23.05;42.12
76785;SHT30;66893;44.316;0.092;2023-04-16T12:27:50;23.08;41.61
76785;SHT30;66893;44.316;0.092;2023-04-16T12:30:18;23.15;41.31
76785;SHT30;66893;44.316;0.092;2023-04-16T12:32:47;23.19;41.17
76785;SHT30;66893;44.316;0.092;2023-04-16T12:35:13;23.26;40.75
76785;SHT30;66893;44.316;0.092;2023-04-16T12:37:53;23.25;40.82
76785;SHT30;66893;44.316;0.092;2023-04-16T12:40:18;23.39;41.04
76785;SHT30;66893;44.316;0.092;2023-04-16T12:42:43;23.50;41.04
76785;SHT30;66893;44.316;0.092;2023-04-16T12:45:09;23.64;40.98
76785;SHT30;66893;44.316;0.092;2023-04-16T12:47:35;23.78;40.89
76785;SHT30;66893;44.316;0.092;2023-04-16T12:50:00;23.97;40.85
76785;SHT30;66893;44.316;0.092;2023-04-16T12:52:26;24.09;40.80
76785;SHT30;66893;44.316;0.092;2023-04-16T12:54:51;24.28;40.74
76785;SHT30;66893;44.316;0.092;2023-04-16T12:57:17;24.33;40.64
76785;SHT30;66893;44.316;0.092;2023-04-16T12:59:43;24.49;40.46
76785;SHT30;66893;44.316;0.092;2023-04-16T13:02:09;24.66;40.52
76785;SHT30;66893;44.316;0.092;2023-04-16T13:04:35;24.80;40.49
76785;SHT30;66893;44.316;0.092;2023-04-16T13:07:00;24.95;40.32
76785;SHT30;66893;44.316;0.092;2023-04-16T13:09:26;25.07;40.20
76785;SHT30;66893;44.316;0.092;2023-04-16T13:11:51;25.15;39.95
76785;SHT30;66893;44.316;0.092;2023-04-16T13:14:18;25.22;40.01
76785;SHT30;66893;44.316;0.092;2023-04-16T13:16:44;25.28;39.98
76785;SHT30;66893;44.316;0.092;2023-04-16T13:19:09;25.41;39.90
76785;SHT30;66893;44.316;0.092;2023-04-16T13:21:35;25.53;39.75
76785;SHT30;66893;44.316;0.092;2023-04-16T13:24:00;25.63;39.72
76785;SHT30;66893;44.316;0.092;2023-04-16T13:26:26;25.74;39.67
76785;SHT30;66893;44.316;0.092;2023-04-16T13:28:51;25.89;39.51
76785;SHT30;66893;44.316;0.092;2023-04-16T13:31:17;25.98;39.41
76785;SHT30;66893;44.316;0.092;2023-04-16T13:33:45;26.14;39.36
76785;SHT30;66893;44.316;0.092;2023-04-16T13:36:10;26.25;39.25
76785;SHT30;66893;44.316;0.092;2023-04-16T13:38:36;26.41;39.18
76785;SHT30;66893;44.316;0.092;2023-04-16T13:41:02;26.56;39.00
76785;SHT30;66893;44.316;0.092;2023-04-16T13:43:28;26.69;38.91
76785;SHT30;66893;44.316;0.092;2023-04-16T13:45:54;26.89;38.79
76785;SHT30;66893;44.316;0.092;2023-04-16T13:48:20;27.01;38.62
76785;SHT30;66893;44.316;0.092;2023-04-16T13:50:45;27.18;38.50
76785;SHT30;66893;44.316;0.092;2023-04-16T13:53:11;27.31;38.41
76785;SHT30;66893;44.316;0.092;2023-04-16T13:55:36;27.46;38.28
76785;SHT30;66893;44.316;0.092;2023-04-16T13:58:01;27.61;38.19
76785;SHT30;66893;44.316;0.092;2023-04-16T14:00:27;27.75;38.12
76785;SHT30;66893;44.316;0.092;2023-04-16T14:02:52;27.82;38.02
76785;SHT30;66893;44.316;0.092;2023-04-16T14:05:18;27.89;37.91
76785;SHT30;66893;44.316;0.092;2023-04-16T14:07:44;27.86;37.84
76785;SHT30;66893;44.316;0.092;2023-04-16T14:10:10;27.83;37.65
76785;SHT30;66893;44.316;0.092;2023-04-16T14:12:37;27.82;37.38
76785;SHT30;66893;44.316;0.092;2023-04-16T14:15:04;27.86;37.21
76785;SHT30;66893;44.316;0.092;2023-04-16T14:17:30;27.92;37.07
76785;SHT30;66893;44.316;0.092;2023-04-16T14:19:56;27.93;36.90
76785;SHT30;66893;44.316;0.092;2023-04-16T14:22:21;27.93;36.86
76785;SHT30;66893;44.316;0.092;2023-04-16T14:24:47;27.93;36.77
76785;SHT30;66893;44.316;0.092;2023-04-16T14:27:12;27.90;36.73
76785;SHT30;66893;44.316;0.092;2023-04-16T14:29:38;27.89;36.69
76785;SHT30;66893;44.316;0.092;2023-04-16T14:32:03;27.90;36.45
76785;SHT30;66893;44.316;0.092;2023-04-16T14:34:29;27.94;36.36
76785;SHT30;66893;44.316;0.092;2023-04-16T14:36:54;27.99;36.21
76785;SHT30;66893;44.316;0.092;2023-04-16T14:39:20;28.06;36.07
76785;SHT30;66893;44.316;0.092;2023-04-16T14:41:46;28.21;36.09
76785;SHT30;66893;44.316;0.092;2023-04-16T14:44:11;28.33;36.11
76785;SHT30;66893;44.316;0.092;2023-04-16T14:46:37;28.31;34.99
76785;SHT30;66893;44.316;0.092;2023-04-16T14:49:03;28.28;34.73
76785;SHT30;66893;44.316;0.092;2023-04-16T14:51:29;28.22;34.62
76785;SHT30;66893;44.316;0.092;2023-04-16T14:53:55;28.25;34.65
76785;SHT30;66893;44.316;0.092;2023-04-16T14:56:21;28.28;34.79
76785;SHT30;66893;44.316;0.092;2023-04-16T14:58:46;28.28;34.93
76785;SHT30;66893;44.316;0.092;2023-04-16T15:01:12;28.34;34.89
76785;SHT30;66893;44.316;0.092;2023-04-16T15:03:39;28.40;35.01
76785;SHT30;66893;44.316;0.092;2023-04-16T15:06:04;28.49;35.11
76785;SHT30;66893;44.316;0.092;2023-04-16T15:08:30;28.49;35.06
76785;SHT30;66893;44.316;0.092;2023-04-16T15:10:55;28.55;35.19
76785;SHT30;66893;44.316;0.092;2023-04-16T15:13:21;28.62;35.07
76785;SHT30;66893;44.316;0.092;2023-04-16T15:15:46;28.68;35.13
76785;SHT30;66893;44.316;0.092;2023-04-16T15:18:12;28.73;35.06
76785;SHT30;66893;44.316;0.092;2023-04-16T15:20:37;28.80;34.89
76785;SHT30;66893;44.316;0.092;2023-04-16T15:23:03;28.65;34.65
76785;SHT30;66893;44.316;0.092;2023-04-16T15:25:28;28.44;34.45
76785;SHT30;66893;44.316;0.092;2023-04-16T15:27:54;28.21;34.31
76785;SHT30;66893;44.316;0.092;2023-04-16T15:30:20;27.94;34.21